createdAt,value
2022-11-14T00:00:53.755Z,7.17
2022-11-14T00:03:20.099Z,7.47
2022-11-14T00:05:46.995Z,7.57
2022-11-14T00:08:19.656Z,8.20
2022-11-14T00:10:47.799Z,7.63
2022-11-14T00:13:15.087Z,7.33
2022-11-14T00:15:41.589Z,8.03
2022-11-14T00:18:08.153Z,7.43
2022-11-14T00:20:34.471Z,8.13
2022-11-14T00:23:00.911Z,8.00
2022-11-14T00:25:27.257Z,8.47
2022-11-14T00:27:57.072Z,7.97
2022-11-14T00:30:23.452Z,7.73
2022-11-14T00:32:49.767Z,7.93
2022-11-14T00:35:16.201Z,7.53
2022-11-14T00:37:42.644Z,7.47
2022-11-14T00:40:09.437Z,7.13
2022-11-14T00:42:35.947Z,7.10
2022-11-14T00:45:02.315Z,7.50
2022-11-14T00:47:28.780Z,6.60
2022-11-14T00:49:55.207Z,6.83
2022-11-14T00:52:21.662Z,7.17
2022-11-14T00:54:48.064Z,7.20
2022-11-14T00:57:14.393Z,7.07
2022-11-14T00:59:40.922Z,6.93
2022-11-14T01:02:07.250Z,6.70
2022-11-14T01:04:33.837Z,7.23
2022-11-14T01:07:00.160Z,7.30
2022-11-14T01:09:26.591Z,7.10
2022-11-14T01:11:53.024Z,7.47
2022-11-14T01:14:19.377Z,6.20
2022-11-14T01:16:45.831Z,6.47
2022-11-14T01:19:12.168Z,6.63
2022-11-14T01:21:38.503Z,6.93
2022-11-14T01:24:05.407Z,7.07
2022-11-14T01:26:31.715Z,6.47
2022-11-14T01:28:58.048Z,6.37
2022-11-14T01:31:25.970Z,6.53
2022-11-14T01:33:53.891Z,6.73
2022-11-14T01:36:21.291Z,6.83
2022-11-14T01:38:52.430Z,6.47
2022-11-14T01:41:18.875Z,6.47
2022-11-14T01:43:45.223Z,6.07
2022-11-14T01:46:28.881Z,6.43
2022-11-14T01:49:06.417Z,5.77
2022-11-14T01:51:38.078Z,5.30
2022-11-14T01:54:11.463Z,6.20
2022-11-14T01:56:44.719Z,5.70
2022-11-14T01:59:14.724Z,5.83
2022-11-14T02:01:50.149Z,5.37
2022-11-14T02:04:22.557Z,5.47
2022-11-14T02:06:50.445Z,5.33
2022-11-14T02:09:16.899Z,5.23
2022-11-14T02:11:45.772Z,5.70
2022-11-14T02:14:12.744Z,5.47
2022-11-14T02:16:41.397Z,5.10
2022-11-14T02:19:08.511Z,4.63
2022-11-14T02:21:35.331Z,4.90
2022-11-14T02:24:02.220Z,4.63
2022-11-14T02:26:31.035Z,4.63
2022-11-14T02:29:00.661Z,4.80
2022-11-14T02:31:27.006Z,4.57
2022-11-14T02:33:53.355Z,4.17
2022-11-14T02:36:19.820Z,5.07
2022-11-14T02:38:46.131Z,4.53
2022-11-14T02:41:12.585Z,4.73
2022-11-14T02:43:38.900Z,5.57
2022-11-14T02:46:05.928Z,4.90
2022-11-14T02:48:32.751Z,4.97
2022-11-14T02:50:59.263Z,5.20
2022-11-14T02:53:25.664Z,4.30
2022-11-14T02:55:52.121Z,5.00
2022-11-14T02:58:18.444Z,5.17
2022-11-14T03:01:13.468Z,4.83
2022-11-14T03:03:31.290Z,4.50
2022-11-14T03:06:02.260Z,4.83
2022-11-14T03:08:29.405Z,5.00
2022-11-14T03:10:56.282Z,4.90
2022-11-14T03:13:22.747Z,4.33
2022-11-14T03:15:49.196Z,4.10
2022-11-14T03:18:15.510Z,4.37
2022-11-14T03:20:41.988Z,4.47
2022-11-14T03:23:08.299Z,4.70
2022-11-14T03:25:34.592Z,5.40
2022-11-14T03:28:00.908Z,4.70
2022-11-14T03:30:27.216Z,4.77
2022-11-14T03:32:55.729Z,4.97
2022-11-14T03:35:22.060Z,4.80
2022-11-14T03:37:50.906Z,4.73
2022-11-14T03:40:20.227Z,5.07
2022-11-14T03:42:46.519Z,4.73
2022-11-14T03:45:12.995Z,5.07
2022-11-14T03:47:39.318Z,4.63
2022-11-14T03:50:06.198Z,4.70
2022-11-14T03:52:32.573Z,4.33
2022-11-14T03:54:58.979Z,4.93
2022-11-14T03:57:25.384Z,4.30
2022-11-14T03:59:51.695Z,4.60
2022-11-14T04:02:18.236Z,4.47
2022-11-14T04:04:44.682Z,5.20
2022-11-14T04:07:11.074Z,4.07
2022-11-14T04:09:37.660Z,4.17
2022-11-14T04:12:04.047Z,4.50
2022-11-14T04:14:30.392Z,4.87
2022-11-14T04:16:56.722Z,4.77
2022-11-14T04:19:23.035Z,4.20
2022-11-14T04:21:49.864Z,3.80
2022-11-14T04:24:16.240Z,4.10
2022-11-14T04:26:42.667Z,3.93
2022-11-14T04:29:09.134Z,4.00
2022-11-14T04:31:35.459Z,4.17
2022-11-14T04:34:01.851Z,4.13
2022-11-14T04:36:28.216Z,3.90
2022-11-14T04:38:54.511Z,4.47
2022-11-14T04:41:20.956Z,4.40
2022-11-14T04:43:50.789Z,4.07
2022-11-14T04:46:17.760Z,4.90
2022-11-14T04:48:44.079Z,4.00
2022-11-14T04:51:10.453Z,4.13
2022-11-14T04:53:36.827Z,4.00
2022-11-14T04:56:03.191Z,4.23
2022-11-14T04:58:29.928Z,3.80
2022-11-14T05:00:57.855Z,4.17
2022-11-14T05:03:25.162Z,4.00
2022-11-14T05:05:51.572Z,4.10
2022-11-14T05:08:17.914Z,3.97
2022-11-14T05:10:45.219Z,4.17
2022-11-14T05:13:12.704Z,4.10
2022-11-14T05:15:39.010Z,3.87
2022-11-14T05:18:05.404Z,4.20
2022-11-14T05:20:31.718Z,4.27
2022-11-14T05:22:58.429Z,4.07
2022-11-14T05:25:24.934Z,4.47
2022-11-14T05:27:51.363Z,3.90
2022-11-14T05:30:17.809Z,3.73
2022-11-14T05:32:44.651Z,3.53
2022-11-14T05:35:11.182Z,4.10
2022-11-14T05:37:37.536Z,3.90
2022-11-14T05:40:05.363Z,4.13
2022-11-14T05:42:32.201Z,4.10
2022-11-14T05:44:58.576Z,4.20
2022-11-14T05:47:24.900Z,4.47
2022-11-14T05:49:51.259Z,4.63
2022-11-14T05:52:17.670Z,4.20
2022-11-14T05:54:43.967Z,4.17
2022-11-14T05:57:10.256Z,4.60
2022-11-14T05:59:36.642Z,4.80
2022-11-14T06:02:03.087Z,4.30
2022-11-14T06:04:29.467Z,4.63
2022-11-14T06:06:55.961Z,5.07
2022-11-14T06:09:22.432Z,5.20
2022-11-14T06:12:27.106Z,5.57
2022-11-14T06:14:53.460Z,5.30
2022-11-14T06:17:19.779Z,5.43
2022-11-14T06:19:46.238Z,6.00
2022-11-14T06:22:12.563Z,6.07
2022-11-14T06:24:38.975Z,6.10
2022-11-14T06:27:05.386Z,5.70
2022-11-14T06:29:35.485Z,5.50
2022-11-14T06:32:02.255Z,5.30
2022-11-14T06:34:31.508Z,4.70
2022-11-14T06:36:57.861Z,4.67
2022-11-14T06:39:24.314Z,4.87
2022-11-14T06:41:50.616Z,4.90
2022-11-14T06:44:17.878Z,4.63
2022-11-14T06:46:44.388Z,4.30
2022-11-14T06:49:10.852Z,4.53
2022-11-14T06:51:37.183Z,4.80
2022-11-14T06:54:03.959Z,3.67
2022-11-14T06:56:30.404Z,4.23
2022-11-14T06:58:56.785Z,4.30
2022-11-14T07:01:25.962Z,4.43
2022-11-14T07:03:52.650Z,5.07
2022-11-14T07:06:22.069Z,4.77
2022-11-14T07:08:48.668Z,4.97
2022-11-14T07:11:23.016Z,5.07
2022-11-14T07:13:51.319Z,5.00
2022-11-14T07:16:18.609Z,5.20
2022-11-14T07:18:45.074Z,5.23
2022-11-14T07:21:13.279Z,5.20
2022-11-14T07:23:40.697Z,6.40
2022-11-14T07:26:09.426Z,6.27
2022-11-14T07:28:45.945Z,6.63
2022-11-14T07:31:16.955Z,6.53
2022-11-14T07:33:44.299Z,6.03
2022-11-14T07:36:12.400Z,6.40
2022-11-14T07:38:40.113Z,6.07
2022-11-14T07:41:07.949Z,7.30
2022-11-14T07:43:34.827Z,6.90
2022-11-14T07:46:02.590Z,7.70
2022-11-14T07:48:30.558Z,8.00
2022-11-14T07:51:01.871Z,8.33
2022-11-14T07:53:29.012Z,7.93
2022-11-14T07:55:56.552Z,8.87
2022-11-14T07:58:23.203Z,9.20
2022-11-14T08:00:49.697Z,9.53
2022-11-14T08:03:16.143Z,9.17
2022-11-14T08:05:42.701Z,9.87
2022-11-14T08:08:09.168Z,11.47
2022-11-14T08:10:35.764Z,10.80
2022-11-14T08:13:30.387Z,10.80
2022-11-14T08:15:52.219Z,10.87
2022-11-14T08:18:18.638Z,10.30
2022-11-14T08:20:45.286Z,13.47
2022-11-14T08:23:13.018Z,15.03
2022-11-14T08:25:40.120Z,15.97
2022-11-14T08:28:06.845Z,14.77
2022-11-14T08:30:33.531Z,12.93
2022-11-14T08:33:04.777Z,12.60
2022-11-14T08:35:32.763Z,13.27
2022-11-14T08:38:01.684Z,12.57
2022-11-14T08:40:28.264Z,13.20
2022-11-14T08:43:02.331Z,12.27
2022-11-14T08:45:29.948Z,11.77
2022-11-14T08:47:56.878Z,13.07
2022-11-14T08:50:23.723Z,13.10
2022-11-14T08:52:51.529Z,12.87
2022-11-14T08:55:19.099Z,12.50
2022-11-14T08:57:49.441Z,13.40
2022-11-14T09:00:16.826Z,13.87
2022-11-14T09:02:43.683Z,13.83
2022-11-14T09:05:10.540Z,13.83
2022-11-14T09:07:37.487Z,12.63
2022-11-14T09:10:04.891Z,11.60
2022-11-14T09:12:31.356Z,12.53
2022-11-14T09:14:57.930Z,12.77
2022-11-14T09:17:24.410Z,12.43
2022-11-14T09:19:50.856Z,12.80
2022-11-14T09:22:17.291Z,13.40
2022-11-14T09:24:47.018Z,12.20
2022-11-14T09:27:14.116Z,13.77
2022-11-14T09:29:40.525Z,12.50
2022-11-14T09:32:06.957Z,12.83
2022-11-14T09:34:33.609Z,12.73
2022-11-14T09:36:59.987Z,13.43
2022-11-14T09:39:26.398Z,12.60
2022-11-14T09:42:19.091Z,12.77
2022-11-14T09:44:56.101Z,11.60
2022-11-14T09:47:28.219Z,11.83
2022-11-14T09:50:01.820Z,11.77
2022-11-14T09:52:36.824Z,11.77
2022-11-14T09:55:12.749Z,12.93
2022-11-14T09:57:42.723Z,12.63
2022-11-14T10:00:26.080Z,12.30
2022-11-14T10:03:09.500Z,11.60
2022-11-14T10:05:51.152Z,13.37
2022-11-14T10:08:50.065Z,11.07
2022-11-14T10:11:41.310Z,12.80
2022-11-14T10:14:55.447Z,11.37
2022-11-14T10:17:40.061Z,11.60
2022-11-14T10:20:09.580Z,11.87
2022-11-14T10:23:01.324Z,12.73
2022-11-14T10:25:44.167Z,12.77
2022-11-14T10:28:38.731Z,12.80
2022-11-14T10:31:22.700Z,12.17
2022-11-14T10:33:57.841Z,12.77
2022-11-14T10:36:34.756Z,11.93
2022-11-14T10:39:16.442Z,12.50
2022-11-14T10:41:58.622Z,11.73
2022-11-14T10:44:36.858Z,13.03
2022-11-14T10:47:06.875Z,12.50
2022-11-14T10:49:37.100Z,12.67
2022-11-14T10:52:09.748Z,12.07
2022-11-14T10:54:48.106Z,12.47
2022-11-14T10:57:20.130Z,12.03
2022-11-14T10:59:47.352Z,11.83
2022-11-14T11:02:14.422Z,12.27
2022-11-14T11:04:42.336Z,13.10
2022-11-14T11:07:08.830Z,12.83
2022-11-14T11:09:56.475Z,13.33
2022-11-14T11:13:03.339Z,12.10
2022-11-14T11:15:31.804Z,12.57
2022-11-14T11:17:59.316Z,13.33
2022-11-14T11:20:34.883Z,12.97
2022-11-14T11:23:04.147Z,12.03
2022-11-14T11:25:31.879Z,11.83
2022-11-14T11:28:19.861Z,12.37
2022-11-14T11:31:07.343Z,11.93
2022-11-14T11:33:35.591Z,12.50
2022-11-14T11:36:13.125Z,12.37
2022-11-14T11:38:40.536Z,10.97
2022-11-14T11:44:15.935Z,12.50
2022-11-14T11:46:56.321Z,11.37
2022-11-14T11:49:48.655Z,12.40
2022-11-14T11:52:28.623Z,13.10
2022-11-14T11:55:05.248Z,13.33
2022-11-14T11:57:36.989Z,13.70
2022-11-14T12:00:21.723Z,12.60
2022-11-14T12:02:50.745Z,13.33
2022-11-14T12:05:34.704Z,13.10
2022-11-14T12:08:10.802Z,12.83
2022-11-14T12:10:40.526Z,12.23
2022-11-14T12:13:42.538Z,13.37
2022-11-14T12:16:19.820Z,12.83
2022-11-14T12:19:04.721Z,13.27
2022-11-14T12:21:58.449Z,12.93
2022-11-14T12:25:03.450Z,12.00
2022-11-14T12:28:04.485Z,11.73
2022-11-14T12:30:32.585Z,12.10
2022-11-14T12:33:09.462Z,11.93
2022-11-14T12:35:37.233Z,12.43
2022-11-14T12:38:14.218Z,11.87
2022-11-14T12:40:49.372Z,11.67
2022-11-14T12:43:36.845Z,12.23
2022-11-14T12:46:09.211Z,12.10
2022-11-14T12:48:46.233Z,11.33
2022-11-14T12:51:25.068Z,11.93
2022-11-14T12:53:52.989Z,12.80
2022-11-14T12:56:31.615Z,11.43
2022-11-14T12:59:22.231Z,11.43
2022-11-14T13:01:48.659Z,11.50
2022-11-14T13:04:35.373Z,12.10
2022-11-14T13:07:34.053Z,12.97
2022-11-14T13:10:13.717Z,12.13
2022-11-14T13:13:01.780Z,12.23
2022-11-14T13:16:08.975Z,12.13
2022-11-14T13:18:54.400Z,11.63
2022-11-14T13:21:47.742Z,12.07
2022-11-14T13:24:18.765Z,11.50
2022-11-14T13:26:47.993Z,11.07
2022-11-14T13:29:36.069Z,11.83
2022-11-14T13:32:02.579Z,11.40
2022-11-14T13:34:28.927Z,11.33
2022-11-14T13:37:11.170Z,11.37
2022-11-14T13:39:58.930Z,11.50
2022-11-14T13:43:05.675Z,11.37
2022-11-14T13:45:46.610Z,10.90
2022-11-14T13:48:16.057Z,11.80
2022-11-14T13:50:46.990Z,11.13
2022-11-14T13:53:20.813Z,11.47
2022-11-14T13:55:57.264Z,11.47
2022-11-14T13:58:42.437Z,11.30
2022-11-14T14:01:27.978Z,11.23
2022-11-14T14:04:20.575Z,11.80
2022-11-14T14:07:01.976Z,12.00
2022-11-14T14:09:37.468Z,12.30
2022-11-14T14:12:22.436Z,11.00
2022-11-14T14:15:07.786Z,11.53
2022-11-14T14:17:52.893Z,11.63
2022-11-14T14:20:27.274Z,11.27
2022-11-14T14:23:12.300Z,12.17
2022-11-14T14:26:00.217Z,12.83
2022-11-14T14:28:39.021Z,10.97
2022-11-14T14:31:08.165Z,12.83
2022-11-14T14:33:46.791Z,10.83
2022-11-14T14:36:22.142Z,12.80
2022-11-14T14:38:49.807Z,12.87
2022-11-14T14:41:19.324Z,12.90
2022-11-14T14:43:55.449Z,13.77
2022-11-14T14:46:31.009Z,14.17
2022-11-14T14:49:00.763Z,13.20
2022-11-14T14:51:32.405Z,13.50
2022-11-14T14:53:58.832Z,13.87
2022-11-14T14:56:25.739Z,12.57
2022-11-14T14:58:52.441Z,12.23
2022-11-14T15:01:23.341Z,12.80
2022-11-14T15:03:58.201Z,11.30
2022-11-14T15:06:38.100Z,12.53
2022-11-14T15:09:14.219Z,12.70
2022-11-14T15:11:43.859Z,12.27
2022-11-14T15:14:16.371Z,12.30
2022-11-14T15:16:44.775Z,12.03
2022-11-14T15:19:16.875Z,10.57
2022-11-14T15:21:43.925Z,11.30
2022-11-14T15:24:22.160Z,12.23
2022-11-14T15:26:50.392Z,10.77
2022-11-14T15:29:22.742Z,11.47
2022-11-14T15:31:53.052Z,11.30
2022-11-14T15:34:32.816Z,10.97
2022-11-14T15:37:18.314Z,10.97
2022-11-14T15:39:46.531Z,10.57
2022-11-14T15:42:26.576Z,11.53
2022-11-14T15:44:53.396Z,11.20
2022-11-14T15:47:27.742Z,12.70
2022-11-14T15:50:03.700Z,10.93
2022-11-14T15:52:34.963Z,12.50
2022-11-14T15:55:01.449Z,11.87
2022-11-14T15:57:28.037Z,14.87
2022-11-14T15:59:54.420Z,11.33
2022-11-14T16:02:25.489Z,11.17
2022-11-14T16:04:53.347Z,9.80
2022-11-14T16:07:20.206Z,10.30
2022-11-14T16:09:47.030Z,11.53
2022-11-14T16:12:13.759Z,9.80
2022-11-14T16:14:40.561Z,10.23
2022-11-14T16:17:12.726Z,10.23
2022-11-14T16:19:39.131Z,11.10
2022-11-14T16:22:06.077Z,10.17
2022-11-14T16:24:34.212Z,10.13
2022-11-14T16:27:01.327Z,10.07
2022-11-14T16:29:27.853Z,10.47
2022-11-14T16:31:55.408Z,11.00
2022-11-14T16:34:24.411Z,10.50
2022-11-14T16:36:58.600Z,10.37
2022-11-14T16:39:25.157Z,10.10
2022-11-14T16:41:51.588Z,10.60
2022-11-14T16:44:18.731Z,9.70
2022-11-14T16:46:45.785Z,10.50
2022-11-14T16:49:16.983Z,12.23
2022-11-14T16:51:48.967Z,10.33
2022-11-14T16:54:17.821Z,10.33
2022-11-14T16:56:44.512Z,10.57
2022-11-14T16:59:11.010Z,9.80
2022-11-14T17:01:37.945Z,9.70
2022-11-14T17:04:05.128Z,11.50
2022-11-14T17:06:31.787Z,12.00
2022-11-14T17:09:00.010Z,11.33
2022-11-14T17:11:27.135Z,10.53
2022-11-14T17:13:54.532Z,10.97
2022-11-14T17:16:21.846Z,12.13
2022-11-14T17:18:52.751Z,10.83
2022-11-14T17:21:19.732Z,11.03
2022-11-14T17:23:46.115Z,12.27
2022-11-14T17:26:13.834Z,11.10
2022-11-14T17:28:41.375Z,13.27
2022-11-14T17:31:08.774Z,12.07
2022-11-14T17:33:36.458Z,11.73
2022-11-14T17:36:07.570Z,10.57
2022-11-14T17:38:38.122Z,10.63
2022-11-14T17:41:05.912Z,11.10
2022-11-14T17:43:39.737Z,11.00
2022-11-14T17:46:12.549Z,10.47
2022-11-14T17:48:40.534Z,11.03
2022-11-14T17:51:10.759Z,10.07
2022-11-14T17:53:37.231Z,10.00
2022-11-14T17:56:03.911Z,10.20
2022-11-14T17:58:31.914Z,10.17
2022-11-14T18:00:58.929Z,10.40
2022-11-14T18:03:26.917Z,11.50
2022-11-14T18:05:56.060Z,9.87
2022-11-14T18:08:22.406Z,9.90
2022-11-14T18:10:48.788Z,9.70
2022-11-14T18:13:15.186Z,9.93
2022-11-14T18:15:43.130Z,9.57
2022-11-14T18:18:09.473Z,10.50
2022-11-14T18:20:37.777Z,10.33
2022-11-14T18:23:04.103Z,10.00
2022-11-14T18:25:31.358Z,9.73
2022-11-14T18:27:57.643Z,9.70
2022-11-14T18:33:10.320Z,8.63
2022-11-14T18:35:36.694Z,8.53
2022-11-14T18:38:03.179Z,8.13
2022-11-14T18:40:29.520Z,8.23
2022-11-14T18:42:56.300Z,8.77
2022-11-14T18:45:22.670Z,9.53
2022-11-14T18:47:48.967Z,9.00
2022-11-14T18:50:15.427Z,8.90
2022-11-14T18:52:41.843Z,8.60
2022-11-14T18:55:08.618Z,8.43
2022-11-14T18:57:35.027Z,8.27
2022-11-14T19:00:01.413Z,7.77
2022-11-14T19:02:27.855Z,7.97
2022-11-14T19:04:54.322Z,8.50
2022-11-14T19:07:20.677Z,7.90
2022-11-14T19:09:47.024Z,8.33
2022-11-14T19:12:21.633Z,7.30
2022-11-14T19:14:50.516Z,7.40
2022-11-14T19:17:21.057Z,7.63
2022-11-14T19:19:49.472Z,7.63
2022-11-14T19:22:19.827Z,7.13
2022-11-14T19:24:46.476Z,6.30
2022-11-14T19:27:16.099Z,6.90
2022-11-14T19:29:42.515Z,7.13
2022-11-14T19:32:08.974Z,7.17
2022-11-14T19:34:35.639Z,7.10
2022-11-14T19:37:02.069Z,6.47
2022-11-14T19:39:28.787Z,6.87
2022-11-14T19:41:55.166Z,7.17
2022-11-14T19:44:21.499Z,7.47
2022-11-14T19:46:48.380Z,7.63
2022-11-14T19:49:15.270Z,6.63
2022-11-14T19:51:42.330Z,7.83
2022-11-14T19:54:10.339Z,8.13
2022-11-14T19:56:37.126Z,8.10
2022-11-14T19:59:09.582Z,8.40
2022-11-14T20:01:39.583Z,8.17
2022-11-14T20:04:07.400Z,8.03
2022-11-14T20:06:36.192Z,8.03
2022-11-14T20:09:06.711Z,8.30
2022-11-14T20:11:33.711Z,8.03
2022-11-14T20:14:01.239Z,8.30
2022-11-14T20:16:33.850Z,8.90
2022-11-14T20:19:01.747Z,8.20
2022-11-14T20:21:30.934Z,9.17
2022-11-14T20:24:00.465Z,7.93
2022-11-14T20:26:27.602Z,8.20
2022-11-14T20:28:54.697Z,8.13
2022-11-14T20:31:28.168Z,8.40
2022-11-14T20:33:55.231Z,8.97
2022-11-14T20:36:24.142Z,7.50
2022-11-14T20:38:51.283Z,7.00
2022-11-14T20:41:18.124Z,7.37
2022-11-14T20:43:44.827Z,7.23
2022-11-14T20:46:17.308Z,7.60
2022-11-14T20:48:44.614Z,7.43
2022-11-14T20:51:14.210Z,7.40
2022-11-14T20:53:41.489Z,7.73
2022-11-14T20:56:09.012Z,7.83
2022-11-14T20:58:35.604Z,8.47
2022-11-14T21:01:02.172Z,7.90
2022-11-14T21:03:28.886Z,7.60
2022-11-14T21:05:55.897Z,7.17
2022-11-14T21:08:22.299Z,7.87
2022-11-14T21:10:50.635Z,7.63
2022-11-14T21:13:40.991Z,7.33
2022-11-14T21:16:13.705Z,7.07
2022-11-14T21:18:45.187Z,6.97
2022-11-14T21:21:17.045Z,7.90
2022-11-14T21:23:44.677Z,7.37
2022-11-14T21:26:16.803Z,7.00
2022-11-14T21:28:45.142Z,7.13
2022-11-14T21:31:20.536Z,6.90
2022-11-14T21:33:48.249Z,7.30
2022-11-14T21:36:43.142Z,7.07
2022-11-14T21:39:03.284Z,6.30
2022-11-14T21:41:30.694Z,6.73
2022-11-14T21:43:59.968Z,6.77
2022-11-14T21:46:27.136Z,6.93
2022-11-14T21:48:55.284Z,7.33
2022-11-14T21:51:24.699Z,6.43
2022-11-14T21:53:54.121Z,6.50
2022-11-14T21:56:23.767Z,6.90
2022-11-14T21:58:51.487Z,6.87
2022-11-14T22:01:40.583Z,6.87
2022-11-14T22:04:13.711Z,6.87
2022-11-14T22:06:44.194Z,6.10
2022-11-14T22:09:10.701Z,6.10
2022-11-14T22:11:40.305Z,6.23
2022-11-14T22:14:07.196Z,6.37
2022-11-14T22:16:34.045Z,6.23
2022-11-14T22:19:05.277Z,6.27
2022-11-14T22:21:32.200Z,5.90
2022-11-14T22:23:58.660Z,6.20
2022-11-14T22:26:25.073Z,5.97
2022-11-14T22:28:51.458Z,6.10
2022-11-14T22:31:20.692Z,6.57
2022-11-14T22:33:48.577Z,5.73
2022-11-14T22:36:15.983Z,6.43
2022-11-14T22:38:43.529Z,5.93
2022-11-14T22:41:13.692Z,6.20
2022-11-14T22:43:40.568Z,6.53
2022-11-14T22:46:07.097Z,6.20
2022-11-14T22:48:34.533Z,6.23
2022-11-14T22:51:05.667Z,6.03
2022-11-14T22:53:34.383Z,6.43
2022-11-14T22:56:02.731Z,6.10
2022-11-14T22:58:34.162Z,6.30
2022-11-14T23:01:01.039Z,6.47
2022-11-14T23:03:28.740Z,5.93
2022-11-14T23:05:55.184Z,6.40
2022-11-14T23:08:21.633Z,6.10
2022-11-14T23:10:48.622Z,6.47
2022-11-14T23:13:15.096Z,6.50
2022-11-14T23:15:46.915Z,6.83
2022-11-14T23:18:13.833Z,6.77
2022-11-14T23:20:40.261Z,6.43
2022-11-14T23:23:06.559Z,6.43
2022-11-14T23:25:35.749Z,7.23
2022-11-14T23:28:02.661Z,6.57
2022-11-14T23:30:29.009Z,7.00
2022-11-14T23:32:55.317Z,6.57
2022-11-14T23:35:21.659Z,6.40
2022-11-14T23:37:48.146Z,6.50
2022-11-14T23:40:14.671Z,6.70
2022-11-14T23:42:41.064Z,6.43
2022-11-14T23:45:07.692Z,6.17
2022-11-14T23:47:34.134Z,6.63
2022-11-14T23:50:00.479Z,6.70
2022-11-14T23:52:26.946Z,5.87
2022-11-14T23:54:53.300Z,6.80
2022-11-14T23:57:19.679Z,6.50
2022-11-14T23:59:46.330Z,6.50
